Orangeburg, Kentucky
Current Conditions -  °F | °C
As of 12:55 PM on Thursday 23 Oct 2014 (Local Time) from KFGX Reporting Station
Scattered Clouds Scattered Clouds  
Wind Chill: 55°   Ceiling: Unl
Heat Index: 55°   Visibility: 10mi
Dew Point: 41°   Wind: 5mph
Humidity: 60%   Direction: 40°NE
Pressure: 30.24"   Gusts: NA
Location:  38.585°N, 83.7789°W
Report Text: KFGX 231655Z AUTO 04004KT 10SM SCT027 13/05 A3024 RMK AO2 T01250049
Loading
Personal Weather Stations






























Interactive Weather Map
Tropical Storm Tracking
New forecast layout! Learn more

10-Day Weather Forecast

Advertisements
Track Severe Weather on mobile